Airfield :
LOGIN :

Register | Disclaimer

   EN    FR    IT 

 










Legend :    VFR   Marginal VFR   IFR   Intensive IFR   Very Intensive IFR
Visi :
Ceiling :
>= 8 km
>= 3000ft
5 to 8 km
1000 to 3000 ft
1500m to 5 km
500 to 1000 ft
800 to 1500m
200 to 500 ft
< 800m
< 200 ft
Symbols :   Thunderstorms  Fog  Heavy snow  Heavy precipitations  Wind > 20 kt
SIGMETs :     Misc.  Thunderstorms  Icing  Turbulence  Mountain Waves  Volcanic Ashes






- Airport Elevation : 659 ft
- IATA code : LGG


EBLG - Liège

CURRENT METAR :
  • 021820Z 26010KT 9999 FEW038 18/10 Q1014 NOSIG

EXPIRED METARs :
  • 021750Z 27011KT 240V300 9999 FEW038 19/10 Q1013 NOSIG
  • 021720Z 27011KT 9999 FEW038 19/10 Q1013 NOSIG
  • 021650Z 25013KT 9999 FEW038 SCT046 20/09 Q1013 NOSIG
  • 021620Z 27013KT 240V300 9999 SCT038 20/10 Q1013 NOSIG
  • 021550Z 25014KT 230V290 9999 SCT035 20/10 Q1013 NOSIG

TAF TAF EBLG
Valid from the 02 at 18:00 until the 04 at 00:00 UTC


021720Z 0218/0324 26010KT 9999 SCT040
TEMPO 0301/0309 BKN012
PROB30
TEMPO 0301/0308 BKN008



MET'MAP, your aeronautical weather chart ! - Copyright ORBIFLY December 2007 - Disclaimer

ORBIFLY MET'MAP TEAM :

Programming & Development : Alexandra Zaïnal
Concept & original design : Baudouin d'Aumeries
Assistance for programming : Marc-Olivier Méhu
Technical & hardware support : Manuel Goepfert

Contact : metmap@orbifly.com




SOURCES & CREDITS :

   NOAA